sensor_id;sensor_type;location;lat;lon;timestamp;P1;durP1;ratioP1;P2;durP2;ratioP2
32637;SDS011;19045;52.268;10.506;2022-08-01T00:01:34;6.07;;;4.63;;
32637;SDS011;19045;52.268;10.506;2022-08-01T00:04:02;5.22;;;4.15;;
32637;SDS011;19045;52.268;10.506;2022-08-01T00:06:29;6.03;;;5.07;;
32637;SDS011;19045;52.268;10.506;2022-08-01T00:08:56;5.20;;;4.60;;
32637;SDS011;19045;52.268;10.506;2022-08-01T00:11:23;5.32;;;4.32;;
32637;SDS011;19045;52.268;10.506;2022-08-01T00:13:50;7.13;;;4.72;;
32637;SDS011;19045;52.268;10.506;2022-08-01T00:16:17;5.68;;;4.20;;
32637;SDS011;19045;52.268;10.506;2022-08-01T00:18:47;8.40;;;5.15;;
32637;SDS011;19045;52.268;10.506;2022-08-01T00:21:15;7.45;;;5.05;;
32637;SDS011;19045;52.268;10.506;2022-08-01T00:23:42;4.93;;;4.40;;
32637;SDS011;19045;52.268;10.506;2022-08-01T00:26:10;8.55;;;4.80;;
32637;SDS011;19045;52.268;10.506;2022-08-01T00:28:37;5.97;;;4.75;;
32637;SDS011;19045;52.268;10.506;2022-08-01T00:31:04;5.45;;;4.00;;
32637;SDS011;19045;52.268;10.506;2022-08-01T00:33:30;7.30;;;4.60;;
32637;SDS011;19045;52.268;10.506;2022-08-01T00:35:57;7.30;;;4.68;;
32637;SDS011;19045;52.268;10.506;2022-08-01T00:38:26;6.68;;;4.65;;
32637;SDS011;19045;52.268;10.506;2022-08-01T00:40:52;6.18;;;4.53;;
32637;SDS011;19045;52.268;10.506;2022-08-01T00:43:19;5.45;;;4.30;;
32637;SDS011;19045;52.268;10.506;2022-08-01T00:45:46;8.23;;;4.68;;
32637;SDS011;19045;52.268;10.506;2022-08-01T00:48:13;6.82;;;4.78;;
32637;SDS011;19045;52.268;10.506;2022-08-01T00:50:40;5.10;;;4.40;;
32637;SDS011;19045;52.268;10.506;2022-08-01T00:53:07;7.75;;;5.03;;
32637;SDS011;19045;52.268;10.506;2022-08-01T00:55:36;6.60;;;4.45;;
32637;SDS011;19045;52.268;10.506;2022-08-01T00:58:02;9.90;;;4.68;;
32637;SDS011;19045;52.268;10.506;2022-08-01T01:00:29;6.72;;;4.28;;
32637;SDS011;19045;52.268;10.506;2022-08-01T01:02:57;9.18;;;4.68;;
32637;SDS011;19045;52.268;10.506;2022-08-01T01:05:23;9.65;;;5.10;;
32637;SDS011;19045;52.268;10.506;2022-08-01T01:07:59;8.38;;;4.50;;
32637;SDS011;19045;52.268;10.506;2022-08-01T01:10:30;8.23;;;4.93;;
32637;SDS011;19045;52.268;10.506;2022-08-01T01:13:05;9.57;;;4.50;;
32637;SDS011;19045;52.268;10.506;2022-08-01T01:15:37;10.23;;;4.68;;
32637;SDS011;19045;52.268;10.506;2022-08-01T01:18:09;8.10;;;4.25;;
32637;SDS011;19045;52.268;10.506;2022-08-01T01:20:38;6.78;;;4.30;;
32637;SDS011;19045;52.268;10.506;2022-08-01T01:23:20;5.25;;;4.28;;
32637;SDS011;19045;52.268;10.506;2022-08-01T01:26:09;5.05;;;4.55;;
32637;SDS011;19045;52.268;10.506;2022-08-01T01:29:04;6.13;;;4.90;;
32637;SDS011;19045;52.268;10.506;2022-08-01T01:31:36;10.23;;;4.18;;
32637;SDS011;19045;52.268;10.506;2022-08-01T01:34:09;8.00;;;5.13;;
32637;SDS011;19045;52.268;10.506;2022-08-01T01:36:39;9.73;;;4.35;;
32637;SDS011;19045;52.268;10.506;2022-08-01T01:39:07;11.30;;;5.40;;
32637;SDS011;19045;52.268;10.506;2022-08-01T01:41:34;9.63;;;4.97;;
32637;SDS011;19045;52.268;10.506;2022-08-01T01:44:05;7.15;;;5.43;;
32637;SDS011;19045;52.268;10.506;2022-08-01T01:46:33;8.13;;;4.95;;
32637;SDS011;19045;52.268;10.506;2022-08-01T01:49:01;8.35;;;5.65;;
32637;SDS011;19045;52.268;10.506;2022-08-01T01:51:29;11.40;;;5.15;;
32637;SDS011;19045;52.268;10.506;2022-08-01T01:53:56;15.80;;;5.60;;
32637;SDS011;19045;52.268;10.506;2022-08-01T01:56:25;8.30;;;5.70;;
32637;SDS011;19045;52.268;10.506;2022-08-01T01:58:58;7.15;;;4.97;;
32637;SDS011;19045;52.268;10.506;2022-08-01T02:01:29;11.70;;;5.25;;
32637;SDS011;19045;52.268;10.506;2022-08-01T02:03:58;8.50;;;5.03;;
32637;SDS011;19045;52.268;10.506;2022-08-01T02:06:28;7.28;;;5.28;;
32637;SDS011;19045;52.268;10.506;2022-08-01T02:08:57;6.22;;;4.88;;
32637;SDS011;19045;52.268;10.506;2022-08-01T02:11:26;12.00;;;5.53;;
32637;SDS011;19045;52.268;10.506;2022-08-01T02:13:55;5.30;;;4.68;;
32637;SDS011;19045;52.268;10.506;2022-08-01T02:16:26;6.72;;;5.45;;
32637;SDS011;19045;52.268;10.506;2022-08-01T02:18:56;9.55;;;5.35;;
32637;SDS011;19045;52.268;10.506;2022-08-01T02:21:25;9.77;;;5.22;;
32637;SDS011;19045;52.268;10.506;2022-08-01T02:23:54;12.63;;;5.72;;
32637;SDS011;19045;52.268;10.506;2022-08-01T02:26:25;10.63;;;5.30;;
32637;SDS011;19045;52.268;10.506;2022-08-01T02:28:56;8.77;;;5.05;;
32637;SDS011;19045;52.268;10.506;2022-08-01T02:31:25;11.10;;;5.47;;
32637;SDS011;19045;52.268;10.506;2022-08-01T02:36:28;7.88;;;4.50;;
32637;SDS011;19045;52.268;10.506;2022-08-01T02:38:59;11.32;;;5.20;;
32637;SDS011;19045;52.268;10.506;2022-08-01T02:41:30;9.65;;;5.00;;
32637;SDS011;19045;52.268;10.506;2022-08-01T02:44:00;7.97;;;5.10;;
32637;SDS011;19045;52.268;10.506;2022-08-01T02:46:33;6.35;;;4.90;;
32637;SDS011;19045;52.268;10.506;2022-08-01T02:49:06;9.32;;;4.70;;
32637;SDS011;19045;52.268;10.506;2022-08-01T02:54:05;9.00;;;4.45;;
32637;SDS011;19045;52.268;10.506;2022-08-01T02:56:34;6.15;;;4.40;;
32637;SDS011;19045;52.268;10.506;2022-08-01T02:59:04;8.63;;;5.35;;
32637;SDS011;19045;52.268;10.506;2022-08-01T03:01:36;7.93;;;5.03;;
32637;SDS011;19045;52.268;10.506;2022-08-01T03:04:07;9.65;;;5.20;;
32637;SDS011;19045;52.268;10.506;2022-08-01T03:06:35;6.63;;;4.55;;
32637;SDS011;19045;52.268;10.506;2022-08-01T03:09:03;7.25;;;4.32;;
32637;SDS011;19045;52.268;10.506;2022-08-01T03:11:31;7.45;;;4.82;;
32637;SDS011;19045;52.268;10.506;2022-08-01T03:13:59;7.20;;;4.80;;
32637;SDS011;19045;52.268;10.506;2022-08-01T03:16:31;6.35;;;4.72;;
32637;SDS011;19045;52.268;10.506;2022-08-01T03:19:00;8.10;;;4.38;;
32637;SDS011;19045;52.268;10.506;2022-08-01T03:21:29;7.05;;;4.75;;
32637;SDS011;19045;52.268;10.506;2022-08-01T03:23:59;9.40;;;4.82;;
32637;SDS011;19045;52.268;10.506;2022-08-01T03:26:28;5.55;;;3.70;;
32637;SDS011;19045;52.268;10.506;2022-08-01T03:28:58;4.50;;;3.40;;
32637;SDS011;19045;52.268;10.506;2022-08-01T03:31:28;4.60;;;3.33;;
32637;SDS011;19045;52.268;10.506;2022-08-01T03:33:56;3.17;;;2.92;;
32637;SDS011;19045;52.268;10.506;2022-08-01T03:36:24;4.55;;;2.67;;
32637;SDS011;19045;52.268;10.506;2022-08-01T03:38:55;3.75;;;2.50;;
32637;SDS011;19045;52.268;10.506;2022-08-01T03:41:26;6.25;;;2.05;;
32637;SDS011;19045;52.268;10.506;2022-08-01T03:43:57;2.25;;;2.03;;
32637;SDS011;19045;52.268;10.506;2022-08-01T03:46:30;3.47;;;1.63;;
32637;SDS011;19045;52.268;10.506;2022-08-01T03:49:03;2.80;;;1.60;;
32637;SDS011;19045;52.268;10.506;2022-08-01T03:51:34;4.25;;;2.08;;
32637;SDS011;19045;52.268;10.506;2022-08-01T03:54:04;2.70;;;1.90;;
32637;SDS011;19045;52.268;10.506;2022-08-01T03:56:32;2.17;;;1.98;;
32637;SDS011;19045;52.268;10.506;2022-08-01T03:59:01;1.40;;;1.30;;
32637;SDS011;19045;52.268;10.506;2022-08-01T04:01:29;2.15;;;1.90;;
32637;SDS011;19045;52.268;10.506;2022-08-01T04:03:58;2.92;;;2.00;;
32637;SDS011;19045;52.268;10.506;2022-08-01T04:06:26;3.97;;;2.10;;
32637;SDS011;19045;52.268;10.506;2022-08-01T04:08:53;2.92;;;2.10;;
32637;SDS011;19045;52.268;10.506;2022-08-01T04:11:25;2.60;;;2.40;;
32637;SDS011;19045;52.268;10.506;2022-08-01T04:13:54;2.90;;;2.42;;
32637;SDS011;19045;52.268;10.506;2022-08-01T04:16:22;3.20;;;2.58;;
32637;SDS011;19045;52.268;10.506;2022-08-01T04:18:49;3.17;;;2.78;;
32637;SDS011;19045;52.268;10.506;2022-08-01T04:21:16;4.60;;;3.55;;
32637;SDS011;19045;52.268;10.506;2022-08-01T04:23:44;6.07;;;2.88;;
32637;SDS011;19045;52.268;10.506;2022-08-01T04:26:12;3.17;;;2.85;;
32637;SDS011;19045;52.268;10.506;2022-08-01T04:28:44;4.78;;;3.55;;
32637;SDS011;19045;52.268;10.506;2022-08-01T04:31:12;5.65;;;3.38;;
32637;SDS011;19045;52.268;10.506;2022-08-01T04:33:43;3.80;;;3.30;;
32637;SDS011;19045;52.268;10.506;2022-08-01T04:36:14;4.53;;;3.22;;
32637;SDS011;19045;52.268;10.506;2022-08-01T04:38:44;3.70;;;3.08;;
32637;SDS011;19045;52.268;10.506;2022-08-01T04:41:15;2.85;;;2.63;;
32637;SDS011;19045;52.268;10.506;2022-08-01T04:43:44;3.40;;;3.03;;
32637;SDS011;19045;52.268;10.506;2022-08-01T04:46:11;3.90;;;3.05;;
32637;SDS011;19045;52.268;10.506;2022-08-01T04:48:40;3.08;;;2.70;;
32637;SDS011;19045;52.268;10.506;2022-08-01T04:51:11;4.22;;;2.88;;
32637;SDS011;19045;52.268;10.506;2022-08-01T04:53:40;2.92;;;2.72;;
32637;SDS011;19045;52.268;10.506;2022-08-01T04:56:07;2.90;;;2.70;;
32637;SDS011;19045;52.268;10.506;2022-08-01T04:58:34;3.35;;;2.92;;
32637;SDS011;19045;52.268;10.506;2022-08-01T05:01:02;3.10;;;2.75;;
32637;SDS011;19045;52.268;10.506;2022-08-01T05:03:28;4.82;;;2.97;;
32637;SDS011;19045;52.268;10.506;2022-08-01T05:05:55;5.70;;;4.13;;
32637;SDS011;19045;52.268;10.506;2022-08-01T05:08:22;3.88;;;3.30;;
32637;SDS011;19045;52.268;10.506;2022-08-01T05:10:49;4.50;;;3.63;;
32637;SDS011;19045;52.268;10.506;2022-08-01T05:13:17;5.07;;;3.20;;
32637;SDS011;19045;52.268;10.506;2022-08-01T05:15:44;5.13;;;4.15;;
32637;SDS011;19045;52.268;10.506;2022-08-01T05:18:12;4.60;;;3.95;;
32637;SDS011;19045;52.268;10.506;2022-08-01T05:20:39;4.32;;;3.55;;
32637;SDS011;19045;52.268;10.506;2022-08-01T05:23:07;5.72;;;4.57;;
32637;SDS011;19045;52.268;10.506;2022-08-01T05:25:34;8.23;;;3.97;;
32637;SDS011;19045;52.268;10.506;2022-08-01T05:28:00;5.80;;;5.10;;
32637;SDS011;19045;52.268;10.506;2022-08-01T05:30:27;7.07;;;5.70;;
32637;SDS011;19045;52.268;10.506;2022-08-01T05:32:54;8.75;;;4.95;;
32637;SDS011;19045;52.268;10.506;2022-08-01T05:35:22;7.30;;;5.72;;
32637;SDS011;19045;52.268;10.506;2022-08-01T05:37:49;7.57;;;6.50;;
32637;SDS011;19045;52.268;10.506;2022-08-01T05:40:16;7.57;;;6.30;;
32637;SDS011;19045;52.268;10.506;2022-08-01T05:42:43;9.10;;;6.93;;
32637;SDS011;19045;52.268;10.506;2022-08-01T05:45:10;9.63;;;7.32;;
32637;SDS011;19045;52.268;10.506;2022-08-01T05:47:37;9.85;;;7.30;;
32637;SDS011;19045;52.268;10.506;2022-08-01T05:50:04;8.85;;;6.93;;
32637;SDS011;19045;52.268;10.506;2022-08-01T05:52:35;9.48;;;6.97;;
32637;SDS011;19045;52.268;10.506;2022-08-01T05:55:02;9.10;;;8.00;;
32637;SDS011;19045;52.268;10.506;2022-08-01T05:57:33;9.18;;;7.90;;
32637;SDS011;19045;52.268;10.506;2022-08-01T05:59:59;10.00;;;7.20;;
32637;SDS011;19045;52.268;10.506;2022-08-01T06:02:26;9.63;;;6.63;;
32637;SDS011;19045;52.268;10.506;2022-08-01T06:04:53;8.82;;;7.60;;
32637;SDS011;19045;52.268;10.506;2022-08-01T06:07:20;8.38;;;6.32;;
32637;SDS011;19045;52.268;10.506;2022-08-01T06:09:48;6.88;;;6.15;;
32637;SDS011;19045;52.268;10.506;2022-08-01T06:12:14;10.13;;;8.30;;
32637;SDS011;19045;52.268;10.506;2022-08-01T06:14:41;11.75;;;7.47;;
32637;SDS011;19045;52.268;10.506;2022-08-01T06:17:08;9.57;;;7.25;;
32637;SDS011;19045;52.268;10.506;2022-08-01T06:19:35;9.02;;;6.85;;
32637;SDS011;19045;52.268;10.506;2022-08-01T06:22:01;10.20;;;7.00;;
32637;SDS011;19045;52.268;10.506;2022-08-01T06:24:28;11.20;;;6.45;;
32637;SDS011;19045;52.268;10.506;2022-08-01T06:26:59;12.68;;;6.35;;
32637;SDS011;19045;52.268;10.506;2022-08-01T06:29:26;6.43;;;5.65;;
32637;SDS011;19045;52.268;10.506;2022-08-01T06:31:52;8.07;;;5.05;;
32637;SDS011;19045;52.268;10.506;2022-08-01T06:34:19;5.40;;;4.70;;
32637;SDS011;19045;52.268;10.506;2022-08-01T06:36:47;4.78;;;4.20;;
32637;SDS011;19045;52.268;10.506;2022-08-01T06:39:14;5.82;;;4.05;;
32637;SDS011;19045;52.268;10.506;2022-08-01T06:41:40;7.05;;;4.50;;
32637;SDS011;19045;52.268;10.506;2022-08-01T06:44:09;3.85;;;3.50;;
32637;SDS011;19045;52.268;10.506;2022-08-01T06:46:35;3.00;;;2.67;;
32637;SDS011;19045;52.268;10.506;2022-08-01T06:49:02;3.65;;;3.15;;
32637;SDS011;19045;52.268;10.506;2022-08-01T06:51:29;3.83;;;3.42;;
32637;SDS011;19045;52.268;10.506;2022-08-01T06:53:56;3.10;;;2.80;;
32637;SDS011;19045;52.268;10.506;2022-08-01T06:56:23;2.88;;;2.60;;
32637;SDS011;19045;52.268;10.506;2022-08-01T06:58:50;2.88;;;2.58;;
32637;SDS011;19045;52.268;10.506;2022-08-01T07:01:18;2.72;;;2.50;;
32637;SDS011;19045;52.268;10.506;2022-08-01T07:03:45;5.07;;;2.45;;
32637;SDS011;19045;52.268;10.506;2022-08-01T07:06:12;6.35;;;2.95;;
32637;SDS011;19045;52.268;10.506;2022-08-01T07:12:02;2.03;;;1.80;;
32637;SDS011;19045;52.268;10.506;2022-08-01T07:14:29;2.13;;;1.90;;
32637;SDS011;19045;52.268;10.506;2022-08-01T07:16:57;1.83;;;1.70;;
32637;SDS011;19045;52.268;10.506;2022-08-01T07:19:25;1.40;;;1.30;;
32637;SDS011;19045;52.268;10.506;2022-08-01T07:21:52;2.15;;;1.95;;
32637;SDS011;19045;52.268;10.506;2022-08-01T07:24:19;2.47;;;1.73;;
32637;SDS011;19045;52.268;10.506;2022-08-01T07:26:47;2.08;;;1.60;;
32637;SDS011;19045;52.268;10.506;2022-08-01T07:29:15;1.30;;;1.00;;
32637;SDS011;19045;52.268;10.506;2022-08-01T07:31:42;3.58;;;1.15;;
32637;SDS011;19045;52.268;10.506;2022-08-01T07:34:10;2.00;;;1.00;;
32637;SDS011;19045;52.268;10.506;2022-08-01T07:36:37;1.13;;;1.02;;
32637;SDS011;19045;52.268;10.506;2022-08-01T07:39:03;1.35;;;1.10;;
32637;SDS011;19045;52.268;10.506;2022-08-01T07:41:30;4.22;;;1.40;;
32637;SDS011;19045;52.268;10.506;2022-08-01T07:43:57;1.42;;;1.08;;
32637;SDS011;19045;52.268;10.506;2022-08-01T07:46:24;2.30;;;1.50;;
32637;SDS011;19045;52.268;10.506;2022-08-01T07:48:51;3.72;;;1.27;;
32637;SDS011;19045;52.268;10.506;2022-08-01T07:51:19;3.72;;;1.60;;
32637;SDS011;19045;52.268;10.506;2022-08-01T07:53:46;2.25;;;1.50;;
32637;SDS011;19045;52.268;10.506;2022-08-01T07:56:14;1.48;;;1.35;;
32637;SDS011;19045;52.268;10.506;2022-08-01T07:58:41;2.75;;;1.33;;
32637;SDS011;19045;52.268;10.506;2022-08-01T08:01:07;1.88;;;1.20;;
32637;SDS011;19045;52.268;10.506;2022-08-01T08:03:34;2.05;;;1.35;;
32637;SDS011;19045;52.268;10.506;2022-08-01T08:06:01;1.38;;;1.10;;
32637;SDS011;19045;52.268;10.506;2022-08-01T08:08:29;2.67;;;1.10;;
32637;SDS011;19045;52.268;10.506;2022-08-01T08:10:55;0.93;;;0.93;;
32637;SDS011;19045;52.268;10.506;2022-08-01T08:13:22;1.67;;;1.10;;
32637;SDS011;19045;52.268;10.506;2022-08-01T08:15:49;1.10;;;1.00;;
32637;SDS011;19045;52.268;10.506;2022-08-01T08:18:23;1.63;;;1.00;;
32637;SDS011;19045;52.268;10.506;2022-08-01T08:20:50;1.33;;;0.88;;
32637;SDS011;19045;52.268;10.506;2022-08-01T08:23:17;1.73;;;0.95;;
32637;SDS011;19045;52.268;10.506;2022-08-01T08:26:01;1.45;;;1.00;;
32637;SDS011;19045;52.268;10.506;2022-08-01T08:28:27;1.95;;;1.17;;
32637;SDS011;19045;52.268;10.506;2022-08-01T08:30:54;1.75;;;1.02;;
32637;SDS011;19045;52.268;10.506;2022-08-01T08:33:21;1.25;;;0.80;;
32637;SDS011;19045;52.268;10.506;2022-08-01T08:35:49;1.42;;;0.90;;
32637;SDS011;19045;52.268;10.506;2022-08-01T08:38:15;1.20;;;1.05;;
32637;SDS011;19045;52.268;10.506;2022-08-01T08:40:42;1.65;;;0.98;;
32637;SDS011;19045;52.268;10.506;2022-08-01T08:43:09;0.82;;;0.70;;
32637;SDS011;19045;52.268;10.506;2022-08-01T08:45:36;1.35;;;0.77;;
32637;SDS011;19045;52.268;10.506;2022-08-01T08:48:04;2.88;;;0.98;;
32637;SDS011;19045;52.268;10.506;2022-08-01T08:50:32;0.93;;;0.70;;
32637;SDS011;19045;52.268;10.506;2022-08-01T08:53:00;1.95;;;0.70;;
32637;SDS011;19045;52.268;10.506;2022-08-01T08:55:28;0.50;;;0.50;;
32637;SDS011;19045;52.268;10.506;2022-08-01T08:57:55;0.60;;;0.60;;
32637;SDS011;19045;52.268;10.506;2022-08-01T09:00:24;0.68;;;0.55;;
32637;SDS011;19045;52.268;10.506;2022-08-01T09:02:51;0.95;;;0.90;;
32637;SDS011;19045;52.268;10.506;2022-08-01T09:05:21;0.95;;;0.80;;
32637;SDS011;19045;52.268;10.506;2022-08-01T09:07:50;3.00;;;1.45;;
32637;SDS011;19045;52.268;10.506;2022-08-01T09:10:18;2.20;;;1.23;;
32637;SDS011;19045;52.268;10.506;2022-08-01T09:13:05;2.30;;;1.50;;
32637;SDS011;19045;52.268;10.506;2022-08-01T09:15:39;1.58;;;1.48;;
32637;SDS011;19045;52.268;10.506;2022-08-01T09:18:06;2.23;;;1.50;;
32637;SDS011;19045;52.268;10.506;2022-08-01T09:20:33;1.60;;;1.50;;
32637;SDS011;19045;52.268;10.506;2022-08-01T09:23:01;2.20;;;1.73;;
32637;SDS011;19045;52.268;10.506;2022-08-01T09:25:29;6.43;;;1.88;;
32637;SDS011;19045;52.268;10.506;2022-08-01T09:28:02;1.98;;;1.40;;
32637;SDS011;19045;52.268;10.506;2022-08-01T09:30:36;1.27;;;1.17;;
32637;SDS011;19045;52.268;10.506;2022-08-01T09:33:05;2.67;;;1.20;;
32637;SDS011;19045;52.268;10.506;2022-08-01T09:35:32;2.45;;;1.15;;
32637;SDS011;19045;52.268;10.506;2022-08-01T09:38:11;1.05;;;0.80;;
32637;SDS011;19045;52.268;10.506;2022-08-01T09:40:52;0.80;;;0.80;;
32637;SDS011;19045;52.268;10.506;2022-08-01T09:43:20;1.33;;;0.80;;
32637;SDS011;19045;52.268;10.506;2022-08-01T09:45:48;1.10;;;0.70;;
32637;SDS011;19045;52.268;10.506;2022-08-01T09:48:15;1.65;;;0.95;;
32637;SDS011;19045;52.268;10.506;2022-08-01T09:50:43;1.30;;;1.00;;
32637;SDS011;19045;52.268;10.506;2022-08-01T09:53:11;1.40;;;0.70;;
32637;SDS011;19045;52.268;10.506;2022-08-01T09:55:39;0.90;;;0.55;;
32637;SDS011;19045;52.268;10.506;2022-08-01T09:58:08;0.73;;;0.73;;
32637;SDS011;19045;52.268;10.506;2022-08-01T10:00:36;0.77;;;0.68;;
32637;SDS011;19045;52.268;10.506;2022-08-01T10:03:18;0.93;;;0.77;;
32637;SDS011;19045;52.268;10.506;2022-08-01T10:05:46;0.73;;;0.70;;
32637;SDS011;19045;52.268;10.506;2022-08-01T10:08:12;2.30;;;0.60;;
32637;SDS011;19045;52.268;10.506;2022-08-01T10:10:40;1.25;;;0.90;;
32637;SDS011;19045;52.268;10.506;2022-08-01T10:13:08;1.15;;;0.90;;
32637;SDS011;19045;52.268;10.506;2022-08-01T10:15:36;0.70;;;0.70;;
32637;SDS011;19045;52.268;10.506;2022-08-01T10:18:06;1.35;;;0.90;;
32637;SDS011;19045;52.268;10.506;2022-08-01T10:20:35;1.08;;;0.85;;
32637;SDS011;19045;52.268;10.506;2022-08-01T10:23:02;0.65;;;0.65;;
32637;SDS011;19045;52.268;10.506;2022-08-01T10:25:33;1.15;;;0.98;;
32637;SDS011;19045;52.268;10.506;2022-08-01T10:28:02;1.15;;;0.70;;
32637;SDS011;19045;52.268;10.506;2022-08-01T10:30:35;0.80;;;0.70;;
32637;SDS011;19045;52.268;10.506;2022-08-01T10:33:03;3.90;;;0.90;;
32637;SDS011;19045;52.268;10.506;2022-08-01T10:35:30;1.25;;;0.60;;
32637;SDS011;19045;52.268;10.506;2022-08-01T10:37:58;1.38;;;0.60;;
32637;SDS011;19045;52.268;10.506;2022-08-01T10:40:24;0.93;;;0.50;;
32637;SDS011;19045;52.268;10.506;2022-08-01T10:42:52;0.65;;;0.60;;
32637;SDS011;19045;52.268;10.506;2022-08-01T10:45:20;2.15;;;0.70;;
32637;SDS011;19045;52.268;10.506;2022-08-01T10:47:51;1.75;;;0.70;;
32637;SDS011;19045;52.268;10.506;2022-08-01T10:50:27;1.10;;;0.80;;
32637;SDS011;19045;52.268;10.506;2022-08-01T10:53:06;2.05;;;1.02;;
32637;SDS011;19045;52.268;10.506;2022-08-01T10:55:44;1.08;;;0.80;;
32637;SDS011;19045;52.268;10.506;2022-08-01T10:58:19;1.25;;;0.90;;
32637;SDS011;19045;52.268;10.506;2022-08-01T11:00:47;1.60;;;0.65;;
32637;SDS011;19045;52.268;10.506;2022-08-01T11:03:15;1.42;;;0.82;;
32637;SDS011;19045;52.268;10.506;2022-08-01T11:06:00;0.50;;;0.50;;
32637;SDS011;19045;52.268;10.506;2022-08-01T11:08:29;2.03;;;0.70;;
32637;SDS011;19045;52.268;10.506;2022-08-01T11:10:59;1.25;;;0.90;;
32637;SDS011;19045;52.268;10.506;2022-08-01T11:16:34;1.63;;;0.80;;
32637;SDS011;19045;52.268;10.506;2022-08-01T11:19:04;1.95;;;0.75;;
32637;SDS011;19045;52.268;10.506;2022-08-01T11:27:26;2.60;;;1.05;;
32637;SDS011;19045;52.268;10.506;2022-08-01T11:32:51;1.33;;;0.50;;
32637;SDS011;19045;52.268;10.506;2022-08-01T11:35:21;1.15;;;0.50;;
32637;SDS011;19045;52.268;10.506;2022-08-01T11:37:50;0.70;;;0.60;;
32637;SDS011;19045;52.268;10.506;2022-08-01T11:40:18;1.38;;;0.70;;
32637;SDS011;19045;52.268;10.506;2022-08-01T11:42:46;0.93;;;0.73;;
32637;SDS011;19045;52.268;10.506;2022-08-01T11:45:13;0.75;;;0.75;;
32637;SDS011;19045;52.268;10.506;2022-08-01T11:47:43;1.15;;;0.77;;
32637;SDS011;19045;52.268;10.506;2022-08-01T11:50:31;1.58;;;0.77;;
32637;SDS011;19045;52.268;10.506;2022-08-01T11:53:00;2.20;;;0.80;;
32637;SDS011;19045;52.268;10.506;2022-08-01T11:55:28;2.80;;;1.02;;
32637;SDS011;19045;52.268;10.506;2022-08-01T11:57:59;1.13;;;0.80;;
32637;SDS011;19045;52.268;10.506;2022-08-01T12:00:27;3.45;;;0.60;;
32637;SDS011;19045;52.268;10.506;2022-08-01T12:02:58;3.13;;;1.00;;
32637;SDS011;19045;52.268;10.506;2022-08-01T12:05:27;1.20;;;0.57;;
32637;SDS011;19045;52.268;10.506;2022-08-01T12:07:57;1.90;;;0.52;;
32637;SDS011;19045;52.268;10.506;2022-08-01T12:10:24;1.25;;;0.60;;
32637;SDS011;19045;52.268;10.506;2022-08-01T12:12:54;2.05;;;0.80;;
32637;SDS011;19045;52.268;10.506;2022-08-01T12:15:23;2.47;;;0.70;;
32637;SDS011;19045;52.268;10.506;2022-08-01T12:17:51;1.70;;;0.90;;
32637;SDS011;19045;52.268;10.506;2022-08-01T12:20:22;2.95;;;0.70;;
32637;SDS011;19045;52.268;10.506;2022-08-01T12:22:52;2.17;;;0.65;;
32637;SDS011;19045;52.268;10.506;2022-08-01T12:25:21;1.35;;;0.70;;
32637;SDS011;19045;52.268;10.506;2022-08-01T12:27:48;3.15;;;0.90;;
32637;SDS011;19045;52.268;10.506;2022-08-01T12:30:15;5.68;;;1.13;;
32637;SDS011;19045;52.268;10.506;2022-08-01T12:32:44;2.60;;;0.90;;
32637;SDS011;19045;52.268;10.506;2022-08-01T12:35:12;6.18;;;1.02;;
32637;SDS011;19045;52.268;10.506;2022-08-01T12:37:42;2.25;;;0.85;;
32637;SDS011;19045;52.268;10.506;2022-08-01T12:40:11;5.10;;;1.13;;
32637;SDS011;19045;52.268;10.506;2022-08-01T12:42:41;3.40;;;0.90;;
32637;SDS011;19045;52.268;10.506;2022-08-01T12:45:11;5.22;;;1.17;;
32637;SDS011;19045;52.268;10.506;2022-08-01T12:47:39;3.55;;;0.95;;
32637;SDS011;19045;52.268;10.506;2022-08-01T12:50:07;3.70;;;1.00;;
32637;SDS011;19045;52.268;10.506;2022-08-01T12:52:37;3.55;;;0.80;;
32637;SDS011;19045;52.268;10.506;2022-08-01T12:55:09;5.70;;;1.15;;
32637;SDS011;19045;52.268;10.506;2022-08-01T12:57:39;2.75;;;0.95;;
32637;SDS011;19045;52.268;10.506;2022-08-01T13:00:09;1.88;;;0.75;;
32637;SDS011;19045;52.268;10.506;2022-08-01T13:02:39;1.88;;;0.98;;
32637;SDS011;19045;52.268;10.506;2022-08-01T13:05:07;4.10;;;1.33;;
32637;SDS011;19045;52.268;10.506;2022-08-01T13:07:35;3.50;;;0.80;;
32637;SDS011;19045;52.268;10.506;2022-08-01T13:10:07;3.15;;;0.73;;
32637;SDS011;19045;52.268;10.506;2022-08-01T13:12:34;3.45;;;0.82;;
32637;SDS011;19045;52.268;10.506;2022-08-01T13:17:46;1.95;;;0.93;;
32637;SDS011;19045;52.268;10.506;2022-08-01T13:20:21;5.80;;;1.13;;
32637;SDS011;19045;52.268;10.506;2022-08-01T13:22:48;6.32;;;1.10;;
32637;SDS011;19045;52.268;10.506;2022-08-01T13:25:15;1.80;;;0.80;;
32637;SDS011;19045;52.268;10.506;2022-08-01T13:27:43;5.03;;;0.80;;
32637;SDS011;19045;52.268;10.506;2022-08-01T13:30:11;3.30;;;1.13;;
32637;SDS011;19045;52.268;10.506;2022-08-01T13:32:39;4.32;;;1.10;;
32637;SDS011;19045;52.268;10.506;2022-08-01T13:35:08;2.05;;;1.00;;
32637;SDS011;19045;52.268;10.506;2022-08-01T13:37:37;4.53;;;1.23;;
32637;SDS011;19045;52.268;10.506;2022-08-01T13:40:05;2.50;;;1.20;;
32637;SDS011;19045;52.268;10.506;2022-08-01T13:42:33;2.67;;;0.90;;
32637;SDS011;19045;52.268;10.506;2022-08-01T13:45:00;4.60;;;1.13;;
32637;SDS011;19045;52.268;10.506;2022-08-01T13:47:28;2.05;;;0.80;;
32637;SDS011;19045;52.268;10.506;2022-08-01T13:49:56;5.22;;;1.02;;
32637;SDS011;19045;52.268;10.506;2022-08-01T13:52:25;5.18;;;0.98;;
32637;SDS011;19045;52.268;10.506;2022-08-01T13:54:52;3.65;;;1.00;;
32637;SDS011;19045;52.268;10.506;2022-08-01T13:57:18;4.03;;;0.75;;
32637;SDS011;19045;52.268;10.506;2022-08-01T13:59:46;2.92;;;0.95;;
32637;SDS011;19045;52.268;10.506;2022-08-01T14:02:13;1.73;;;0.88;;
32637;SDS011;19045;52.268;10.506;2022-08-01T14:04:40;2.65;;;1.00;;
32637;SDS011;19045;52.268;10.506;2022-08-01T14:07:08;0.98;;;0.68;;
32637;SDS011;19045;52.268;10.506;2022-08-01T14:09:35;3.55;;;1.15;;
32637;SDS011;19045;52.268;10.506;2022-08-01T14:12:02;3.25;;;1.00;;
32637;SDS011;19045;52.268;10.506;2022-08-01T14:14:29;1.90;;;0.98;;
32637;SDS011;19045;52.268;10.506;2022-08-01T14:16:56;2.60;;;0.82;;
32637;SDS011;19045;52.268;10.506;2022-08-01T14:19:23;5.00;;;0.95;;
32637;SDS011;19045;52.268;10.506;2022-08-01T14:21:49;2.05;;;0.85;;
32637;SDS011;19045;52.268;10.506;2022-08-01T14:24:18;2.40;;;0.77;;
32637;SDS011;19045;52.268;10.506;2022-08-01T14:26:45;2.83;;;1.00;;
32637;SDS011;19045;52.268;10.506;2022-08-01T14:29:12;3.47;;;1.38;;
32637;SDS011;19045;52.268;10.506;2022-08-01T14:31:38;2.70;;;1.30;;
32637;SDS011;19045;52.268;10.506;2022-08-01T14:34:05;2.00;;;1.08;;
32637;SDS011;19045;52.268;10.506;2022-08-01T14:36:32;2.42;;;0.90;;
32637;SDS011;19045;52.268;10.506;2022-08-01T14:38:59;2.28;;;1.00;;
32637;SDS011;19045;52.268;10.506;2022-08-01T14:41:27;1.95;;;1.00;;
32637;SDS011;19045;52.268;10.506;2022-08-01T14:43:54;3.70;;;1.05;;
32637;SDS011;19045;52.268;10.506;2022-08-01T14:46:21;4.30;;;1.33;;
32637;SDS011;19045;52.268;10.506;2022-08-01T14:48:47;6.18;;;1.38;;
32637;SDS011;19045;52.268;10.506;2022-08-01T14:51:14;4.20;;;1.00;;
32637;SDS011;19045;52.268;10.506;2022-08-01T14:53:41;2.67;;;0.93;;
32637;SDS011;19045;52.268;10.506;2022-08-01T14:56:07;3.40;;;1.20;;
32637;SDS011;19045;52.268;10.506;2022-08-01T14:58:36;4.93;;;1.40;;
32637;SDS011;19045;52.268;10.506;2022-08-01T15:01:02;3.10;;;1.00;;
32637;SDS011;19045;52.268;10.506;2022-08-01T15:03:30;3.13;;;1.27;;
32637;SDS011;19045;52.268;10.506;2022-08-01T15:05:57;4.80;;;1.45;;